Time;durP1;ratioP1;P1;durP2;ratioP2;P2;SDS_P1;SDS_P2;PMS_P1;PMS_P2;Temp;Humidity;BMP_temperature;BMP_pressure;BME280_temperature;BME280_humidity;BME280_pressure;Samples;Min_cycle;Max_cycle;Signal;HPM_P1;HPM_P2
2021/06/17 00:03:20;;;;;;;3.00;2.80;;;23.30;24.70;;;;;;10372570;28;20730;-74
2021/06/17 00:08:24;;;;;;;3.37;3.07;;;23.20;24.50;;;;;;10358558;28;20631;-75
2021/06/17 00:13:33;;;;;;;3.90;2.90;;;23.10;24.60;;;;;;10365352;28;20689;-73
2021/06/17 00:18:38;;;;;;;4.03;2.60;;;23.00;25.30;;;;;;10365504;28;20236;-73
2021/06/17 00:23:41;;;;;;;3.10;2.80;;;23.00;24.90;;;;;;10362880;28;20236;-73
2021/06/17 00:28:45;;;;;;;3.00;2.80;;;22.90;25.00;;;;;;10361218;28;20604;-73
2021/06/17 00:33:49;;;;;;;3.30;2.90;;;22.80;25.20;;;;;;10359653;28;20237;-73
2021/06/17 00:38:52;;;;;;;3.13;2.40;;;22.70;25.10;;;;;;10356601;28;20235;-73
2021/06/17 00:43:57;;;;;;;3.33;3.03;;;22.70;25.10;;;;;;10362432;28;20252;-73
2021/06/17 00:49:00;;;;;;;2.97;2.77;;;22.70;25.40;;;;;;10358398;28;20261;-73
2021/06/17 00:54:03;;;;;;;4.90;3.10;;;22.70;25.40;;;;;;10374438;28;20309;-73
2021/06/17 00:59:08;;;;;;;3.63;3.33;;;22.60;25.60;;;;;;10382172;23;20234;-75
2021/06/17 01:04:14;;;;;;;3.10;2.80;;;22.60;25.90;;;;;;10351029;28;20258;-76
2021/06/17 01:09:46;;;;;;;3.60;3.30;;;22.50;25.40;;;;;;10350418;28;20242;-75
2021/06/17 01:14:55;;;;;;;3.13;2.83;;;22.50;26.60;;;;;;10343269;28;20245;-75
2021/06/17 01:20:08;;;;;;;4.87;3.27;;;22.40;26.20;;;;;;10342820;28;20237;-75
2021/06/17 01:25:26;;;;;;;3.00;2.73;;;22.30;26.90;;;;;;10346798;28;20313;-75
2021/06/17 01:30:32;;;;;;;5.80;3.57;;;22.20;26.10;;;;;;10343939;28;20234;-75
2021/06/17 01:35:42;;;;;;;5.07;3.50;;;22.20;26.60;;;;;;10344669;28;20710;-75
2021/06/17 01:40:48;;;;;;;3.00;2.63;;;22.10;26.80;;;;;;10348256;28;20237;-75
2021/06/17 01:45:52;;;;;;;4.13;3.10;;;22.00;26.10;;;;;;10345452;28;20227;-75
2021/06/17 01:50:56;;;;;;;3.20;3.00;;;22.00;26.70;;;;;;10344483;28;20722;-76
2021/06/17 01:56:01;;;;;;;3.70;3.40;;;21.90;26.50;;;;;;10340978;28;20229;-76
2021/06/17 02:01:06;;;;;;;4.47;3.60;;;21.90;26.60;;;;;;10386374;28;20230;-76
2021/06/17 02:06:10;;;;;;;3.87;3.30;;;21.80;26.50;;;;;;10389279;28;20641;-74
2021/06/17 02:11:15;;;;;;;3.67;3.37;;;21.70;26.50;;;;;;10381364;28;20229;-74
2021/06/17 02:16:21;;;;;;;4.10;3.80;;;21.50;26.30;;;;;;10389752;28;20234;-74
2021/06/17 02:21:26;;;;;;;4.27;3.33;;;21.40;26.70;;;;;;10389218;28;20246;-74
2021/06/17 02:26:30;;;;;;;3.30;2.97;;;21.30;26.30;;;;;;10385197;28;20245;-74
2021/06/17 02:31:35;;;;;;;5.43;3.87;;;21.10;26.30;;;;;;10386138;28;20233;-76
2021/06/17 02:36:41;;;;;;;3.93;3.47;;;21.00;27.10;;;;;;10386843;28;20222;-76
2021/06/17 02:41:48;;;;;;;3.40;3.10;;;20.90;27.20;;;;;;10381087;28;20610;-76
2021/06/17 02:46:53;;;;;;;4.73;3.20;;;20.80;26.80;;;;;;10383510;28;20703;-76
2021/06/17 02:51:57;;;;;;;4.40;3.87;;;20.70;27.40;;;;;;10382027;28;20240;-76
2021/06/17 02:57:07;;;;;;;3.30;3.10;;;20.60;27.20;;;;;;10383401;28;20228;-77
2021/06/17 03:02:16;;;;;;;3.20;2.90;;;20.60;27.70;;;;;;10384987;28;20685;-76
2021/06/17 03:07:24;;;;;;;3.47;3.17;;;20.50;27.80;;;;;;10386636;28;20229;-76
2021/06/17 03:12:28;;;;;;;3.67;3.30;;;20.50;27.90;;;;;;10387393;28;20614;-76
2021/06/17 03:17:35;;;;;;;3.60;3.30;;;20.40;27.50;;;;;;10380589;28;20230;-76
2021/06/17 03:22:43;;;;;;;6.00;3.43;;;20.20;27.80;;;;;;10381443;28;20226;-76
2021/06/17 03:27:51;;;;;;;5.37;3.40;;;20.10;28.00;;;;;;10380090;28;20701;-76
2021/06/17 03:32:59;;;;;;;5.47;3.63;;;20.00;28.40;;;;;;10379375;28;20226;-75
2021/06/17 03:38:04;;;;;;;3.90;3.60;;;20.10;28.90;;;;;;10385499;28;20234;-75
2021/06/17 03:43:08;;;;;;;3.17;2.97;;;20.00;28.10;;;;;;10375915;28;20234;-75
2021/06/17 03:48:15;;;;;;;4.77;3.80;;;20.00;28.00;;;;;;10383065;28;20230;-75
2021/06/17 03:53:20;;;;;;;6.20;3.63;;;20.00;28.60;;;;;;10384299;28;20245;-75
2021/06/17 03:58:25;;;;;;;4.30;3.90;;;20.00;28.60;;;;;;10386287;28;20237;-75
2021/06/17 04:03:30;;;;;;;4.13;3.83;;;20.00;28.50;;;;;;10381101;28;20245;-76
2021/06/17 04:08:36;;;;;;;4.73;3.73;;;19.90;28.60;;;;;;10386841;28;20240;-75
2021/06/17 04:13:41;;;;;;;4.60;4.20;;;19.90;28.90;;;;;;10389202;28;20233;-75
2021/06/17 04:18:47;;;;;;;3.80;3.43;;;19.80;29.20;;;;;;10387946;28;20226;-75
2021/06/17 04:23:54;;;;;;;5.50;3.80;;;19.70;29.40;;;;;;10391491;28;20226;-75
2021/06/17 04:28:58;;;;;;;5.43;4.80;;;19.70;29.60;;;;;;10389093;28;20702;-75
2021/06/17 04:34:03;;;;;;;4.73;4.33;;;19.80;29.40;;;;;;10393341;28;20232;-76
2021/06/17 04:39:07;;;;;;;4.97;4.47;;;19.80;29.90;;;;;;10389893;28;20222;-76
2021/06/17 04:44:11;;;;;;;4.10;3.80;;;19.80;29.40;;;;;;10387173;28;20229;-75
2021/06/17 04:49:17;;;;;;;5.57;4.27;;;19.80;29.80;;;;;;10393479;28;20260;-76
2021/06/17 04:54:21;;;;;;;4.83;4.53;;;19.90;30.80;;;;;;10395596;28;20229;-75
2021/06/17 04:59:24;;;;;;;4.90;4.43;;;20.00;30.00;;;;;;10387106;28;20237;-76
2021/06/17 05:04:28;;;;;;;4.70;4.30;;;20.10;30.20;;;;;;10388994;28;20236;-76
2021/06/17 05:14:52;;;;;;;5.47;5.00;;;20.40;30.60;;;;;;10394474;28;20790;-76
2021/06/17 05:19:58;;;;;;;6.30;5.70;;;20.60;30.50;;;;;;10391056;28;20231;-76
2021/06/17 05:25:01;;;;;;;6.00;5.50;;;20.80;31.20;;;;;;10381914;28;20226;-76
2021/06/17 05:30:05;;;;;;;8.10;5.70;;;21.00;31.00;;;;;;10393219;28;20234;-76
2021/06/17 05:35:11;;;;;;;6.00;5.40;;;21.20;31.10;;;;;;10391076;28;20846;-79
2021/06/17 05:40:16;;;;;;;6.13;5.53;;;21.30;31.70;;;;;;10399507;28;20223;-79
2021/06/17 05:45:19;;;;;;;6.77;4.83;;;21.50;31.00;;;;;;10409312;28;20297;-79
2021/06/17 05:50:23;;;;;;;4.90;4.50;;;21.70;31.00;;;;;;10390349;28;20252;-77
2021/06/17 05:55:27;;;;;;;5.17;4.63;;;21.90;31.30;;;;;;10386671;28;20233;-77
2021/06/17 06:00:30;;;;;;;5.10;4.60;;;22.10;31.20;;;;;;10398573;28;20233;-76
2021/06/17 06:05:35;;;;;;;4.30;3.90;;;22.20;31.10;;;;;;10389366;28;20244;-77
2021/06/17 06:10:38;;;;;;;4.70;4.30;;;22.40;31.80;;;;;;10392382;28;20693;-77
2021/06/17 06:15:42;;;;;;;4.80;4.37;;;22.70;31.20;;;;;;10388867;28;20233;-77
2021/06/17 06:20:48;;;;;;;5.27;3.87;;;22.90;30.50;;;;;;10406547;28;20897;-77
2021/06/17 06:25:52;;;;;;;4.47;4.07;;;23.10;30.80;;;;;;10384802;28;20231;-76
2021/06/17 06:30:55;;;;;;;4.90;4.50;;;23.40;30.60;;;;;;10392269;28;20256;-77
2021/06/17 06:36:00;;;;;;;4.60;4.20;;;23.60;30.70;;;;;;10393974;28;20234;-77
2021/06/17 06:41:03;;;;;;;4.77;4.37;;;23.90;30.80;;;;;;10399415;28;20704;-76
2021/06/17 06:46:07;;;;;;;4.60;4.20;;;24.10;30.40;;;;;;10398997;28;20227;-77
2021/06/17 06:51:12;;;;;;;5.00;4.20;;;24.20;30.20;;;;;;10405473;28;20229;-77
2021/06/17 06:56:15;;;;;;;5.10;4.27;;;24.40;30.20;;;;;;10380793;28;20857;-76
2021/06/17 07:01:18;;;;;;;6.03;4.47;;;24.50;30.00;;;;;;10385931;28;21152;-76
2021/06/17 07:06:23;;;;;;;5.13;4.73;;;24.70;30.00;;;;;;10397675;28;20317;-76
2021/06/17 07:11:26;;;;;;;5.17;4.57;;;25.00;30.00;;;;;;10397766;28;20245;-77
2021/06/17 07:16:30;;;;;;;4.43;4.13;;;25.20;30.00;;;;;;10397603;28;20631;-77
2021/06/17 07:21:35;;;;;;;4.43;4.07;;;25.40;29.90;;;;;;10392144;28;20261;-77
2021/06/17 07:26:38;;;;;;;4.33;4.03;;;25.60;30.00;;;;;;10385957;28;20227;-77
2021/06/17 07:31:42;;;;;;;5.87;4.50;;;25.80;29.70;;;;;;10385060;28;20234;-76
2021/06/17 07:36:47;;;;;;;4.43;4.03;;;26.00;29.40;;;;;;10387801;28;20735;-77
2021/06/17 07:41:50;;;;;;;4.23;3.87;;;26.30;29.40;;;;;;10372230;28;20245;-77
2021/06/17 07:46:54;;;;;;;4.77;4.33;;;26.40;29.40;;;;;;10388125;28;20729;-77
2021/06/17 07:51:59;;;;;;;4.73;4.33;;;26.60;29.10;;;;;;10390561;28;20225;-78
2021/06/17 07:57:02;;;;;;;4.50;3.63;;;26.80;28.90;;;;;;10397261;28;20225;-76
2021/06/17 08:02:05;;;;;;;4.90;4.50;;;26.90;28.70;;;;;;10391683;28;20229;-77
2021/06/17 08:07:10;;;;;;;5.00;4.60;;;27.10;28.40;;;;;;10404003;28;20229;-76
2021/06/17 08:12:13;;;;;;;5.40;4.17;;;27.30;28.20;;;;;;10404842;28;20238;-76
2021/06/17 08:17:17;;;;;;;4.60;4.23;;;27.40;28.20;;;;;;10402049;28;20755;-76
2021/06/17 08:22:25;;;;;;;4.77;4.33;;;27.70;28.20;;;;;;10401466;28;20236;-76
2021/06/17 08:27:28;;;;;;;4.97;4.47;;;27.90;27.80;;;;;;10399208;28;20252;-76
2021/06/17 08:32:31;;;;;;;5.03;4.53;;;28.20;27.70;;;;;;10398024;28;20241;-76
2021/06/17 08:37:36;;;;;;;4.77;4.37;;;28.40;27.50;;;;;;10390827;28;20589;-76
2021/06/17 08:42:39;;;;;;;6.40;4.27;;;28.60;27.10;;;;;;10393161;28;20230;-77
2021/06/17 08:47:42;;;;;;;4.57;4.20;;;28.90;27.30;;;;;;10406918;28;20313;-76
2021/06/17 08:52:48;;;;;;;5.80;4.87;;;29.10;26.90;;;;;;10399642;28;20222;-76
2021/06/17 08:57:53;;;;;;;5.00;4.60;;;29.40;26.30;;;;;;10395170;28;20225;-76
2021/06/17 09:02:57;;;;;;;4.90;4.50;;;29.50;26.00;;;;;;10402587;28;20226;-77
2021/06/17 09:08:02;;;;;;;5.33;4.23;;;29.70;26.40;;;;;;10392904;28;20248;-77
2021/06/17 09:13:05;;;;;;;5.07;4.50;;;30.00;25.90;;;;;;10395159;28;20826;-80
2021/06/17 09:18:23;;;;;;;4.70;4.30;;;30.20;25.70;;;;;;10405592;28;20221;-78
2021/06/17 09:23:34;;;;;;;4.47;4.10;;;30.40;25.40;;;;;;10400496;28;20726;-77
2021/06/17 09:28:49;;;;;;;5.77;4.60;;;30.50;25.00;;;;;;10409398;28;20329;-77
2021/06/17 09:33:54;;;;;;;4.83;4.50;;;30.70;25.10;;;;;;10386988;28;20260;-77
2021/06/17 09:39:00;;;;;;;4.63;4.17;;;31.00;25.00;;;;;;10385099;28;20648;-77
2021/06/17 09:44:05;;;;;;;4.83;4.43;;;31.10;24.40;;;;;;10389419;28;20233;-77
2021/06/17 09:49:09;;;;;;;4.67;4.37;;;31.30;24.60;;;;;;10398989;28;20236;-79
2021/06/17 09:54:23;;;;;;;4.40;4.10;;;31.50;24.20;;;;;;10399733;28;20250;-79
2021/06/17 09:59:42;;;;;;;4.50;4.13;;;31.60;24.30;;;;;;10395932;28;20294;-79
2021/06/17 10:04:46;;;;;;;4.57;3.80;;;31.80;23.90;;;;;;10396372;28;20622;-76
2021/06/17 10:09:51;;;;;;;4.20;3.80;;;31.90;23.50;;;;;;10408020;28;20235;-79
2021/06/17 10:14:55;;;;;;;4.27;3.77;;;32.10;22.20;;;;;;10399381;28;20240;-80
2021/06/17 10:20:01;;;;;;;4.50;4.10;;;32.30;22.40;;;;;;10407280;28;20231;-81
2021/06/17 10:25:09;;;;;;;4.10;3.80;;;32.50;22.30;;;;;;10399379;28;20230;-81
2021/06/17 10:30:39;;;;;;;3.87;3.57;;;32.70;21.70;;;;;;10407013;28;20358;-81
2021/06/17 10:35:42;;;;;;;4.17;3.87;;;32.90;22.60;;;;;;10398593;28;20259;-80
2021/06/17 10:40:47;;;;;;;5.13;4.13;;;33.10;21.80;;;;;;10403545;28;20236;-79
2021/06/17 10:45:51;;;;;;;5.17;3.80;;;33.30;21.30;;;;;;10394731;28;20228;-77
2021/06/17 10:51:05;;;;;;;5.43;3.40;;;33.30;21.40;;;;;;10390659;28;20332;-78
2021/06/17 10:56:16;;;;;;;3.97;3.67;;;33.50;20.60;;;;;;10393852;28;20227;-78
2021/06/17 11:01:27;;;;;;;4.00;3.70;;;33.60;20.00;;;;;;10407636;28;20229;-79
2021/06/17 11:07:07;;;;;;;4.30;4.00;;;33.70;19.50;;;;;;10396714;28;20244;-80
2021/06/17 11:12:56;;;;;;;4.00;3.60;;;33.90;19.80;;;;;;10401654;28;20225;-79
2021/06/17 11:18:01;;;;;;;3.57;3.20;;;34.00;19.60;;;;;;10395695;28;20713;-80
2021/06/17 11:23:05;;;;;;;3.57;3.30;;;34.20;18.90;;;;;;10405679;28;20229;-81
2021/06/17 11:28:12;;;;;;;3.57;3.27;;;34.20;18.90;;;;;;10411873;28;20321;-81
2021/06/17 11:33:38;;;;;;;4.00;3.70;;;34.30;17.90;;;;;;10405780;28;20231;-80
2021/06/17 11:38:53;;;;;;;3.57;3.37;;;34.40;18.10;;;;;;10409088;28;20237;-81
2021/06/17 11:44:22;;;;;;;3.53;3.23;;;34.50;17.60;;;;;;10397040;28;20635;-81
2021/06/17 11:49:31;;;;;;;3.30;3.10;;;34.50;16.90;;;;;;10395147;28;20248;-79
2021/06/17 11:54:35;;;;;;;3.63;3.33;;;34.50;16.90;;;;;;10398630;28;20261;-80
2021/06/17 11:59:41;;;;;;;3.47;3.17;;;34.60;17.90;;;;;;10403998;28;20225;-79
2021/06/17 12:04:56;;;;;;;3.20;3.00;;;34.70;17.10;;;;;;10412941;28;20238;-79
2021/06/17 12:10:17;;;;;;;3.03;2.83;;;34.80;15.90;;;;;;10411058;28;20324;-80
2021/06/17 12:15:26;;;;;;;3.10;2.90;;;34.90;16.00;;;;;;10405633;28;20666;-79
2021/06/17 12:20:33;;;;;;;3.00;2.80;;;34.90;15.40;;;;;;10405471;28;20328;-80
2021/06/17 12:25:38;;;;;;;3.13;2.93;;;34.90;15.50;;;;;;10396988;28;20234;-78
2021/06/17 12:30:44;;;;;;;4.80;3.20;;;35.00;15.30;;;;;;10391341;28;20233;-79
2021/06/17 12:35:49;;;;;;;3.43;3.13;;;35.10;15.00;;;;;;10389781;28;20318;-78
2021/06/17 12:40:53;;;;;;;3.10;2.90;;;35.10;15.00;;;;;;10393190;28;20229;-79
2021/06/17 12:46:05;;;;;;;3.10;2.90;;;35.00;14.90;;;;;;10401494;28;20319;-78
2021/06/17 12:56:50;;;;;;;2.90;2.70;;;34.80;14.70;;;;;;10393774;28;20239;-78
2021/06/17 13:01:55;;;;;;;2.70;2.50;;;34.70;14.00;;;;;;10388577;28;20241;-78
2021/06/17 13:06:59;;;;;;;2.77;2.67;;;34.80;14.50;;;;;;10400963;28;20234;-79
2021/06/17 13:12:16;;;;;;;2.90;2.70;;;34.80;14.60;;;;;;10395850;28;20720;-80
2021/06/17 13:17:21;;;;;;;3.23;2.67;;;34.90;13.20;;;;;;10391255;28;20261;-78
2021/06/17 13:22:25;;;;;;;2.63;2.53;;;35.00;13.70;;;;;;10402773;28;20300;-79
2021/06/17 13:27:30;;;;;;;3.07;2.80;;;35.00;13.70;;;;;;10398302;28;20233;-78
2021/06/17 13:32:35;;;;;;;3.10;2.80;;;35.10;13.40;;;;;;10400970;28;20731;-78
2021/06/17 13:37:38;;;;;;;2.80;2.60;;;35.20;13.20;;;;;;10409120;28;20490;-79
2021/06/17 13:42:41;;;;;;;2.90;2.73;;;35.30;13.70;;;;;;10410441;28;20243;-80
2021/06/17 13:47:46;;;;;;;3.07;2.87;;;35.40;13.30;;;;;;10407514;28;20238;-79
2021/06/17 13:52:50;;;;;;;2.83;2.63;;;35.40;13.30;;;;;;10401812;28;20233;-78
2021/06/17 13:57:56;;;;;;;3.07;2.87;;;35.40;13.30;;;;;;10400061;28;20238;-80
2021/06/17 14:03:01;;;;;;;3.37;2.90;;;35.30;13.20;;;;;;10405699;28;20248;-80
2021/06/17 14:08:05;;;;;;;3.07;2.87;;;35.40;12.50;;;;;;10411744;22;20285;-75
2021/06/17 14:13:09;;;;;;;3.03;2.83;;;35.30;12.80;;;;;;10376537;28;20246;-75
2021/06/17 14:18:14;;;;;;;3.10;2.90;;;35.30;12.50;;;;;;10378318;28;20230;-75
2021/06/17 14:23:17;;;;;;;3.00;2.80;;;35.20;12.10;;;;;;10378713;28;20241;-75
2021/06/17 14:28:21;;;;;;;2.53;2.43;;;35.10;12.50;;;;;;10384481;28;20237;-75
2021/06/17 14:33:26;;;;;;;2.87;2.50;;;35.10;13.50;;;;;;10383146;28;20666;-76
2021/06/17 14:38:34;;;;;;;2.40;2.20;;;35.10;11.90;;;;;;10382185;28;20598;-83
2021/06/17 14:43:41;;;;;;;2.37;2.23;;;35.00;10.90;;;;;;10380328;28;20238;-75
2021/06/17 14:48:48;;;;;;;2.50;2.30;;;35.00;11.70;;;;;;10375966;28;20229;-75
2021/06/17 14:53:51;;;;;;;2.47;2.20;;;35.00;11.00;;;;;;10380618;28;20773;-74
2021/06/17 14:58:55;;;;;;;2.80;2.40;;;35.00;11.40;;;;;;10379417;28;20252;-75
2021/06/17 15:03:59;;;;;;;3.53;2.40;;;35.10;11.40;;;;;;10380127;28;20226;-82
2021/06/17 15:09:03;;;;;;;2.67;2.50;;;35.20;10.90;;;;;;10388145;28;20232;-82
2021/06/17 15:14:07;;;;;;;2.27;2.17;;;35.20;11.10;;;;;;10390963;28;20244;-82
2021/06/17 15:19:11;;;;;;;2.30;2.10;;;35.20;11.10;;;;;;10396260;28;20222;-81
2021/06/17 15:24:17;;;;;;;2.50;2.30;;;35.30;11.00;;;;;;10390759;28;20262;-77
2021/06/17 15:29:21;;;;;;;2.23;2.13;;;35.40;11.20;;;;;;10390640;28;20232;-84
2021/06/17 15:34:25;;;;;;;2.43;2.23;;;35.50;11.00;;;;;;10380079;28;20239;-75
2021/06/17 15:39:29;;;;;;;1.90;1.80;;;35.50;10.90;;;;;;10379053;28;20248;-75
2021/06/17 15:44:38;;;;;;;2.30;2.20;;;35.70;10.90;;;;;;10374750;28;20783;-75
2021/06/17 15:49:42;;;;;;;2.67;2.07;;;35.80;9.80;;;;;;10380537;28;20601;-80
2021/06/17 15:54:46;;;;;;;2.73;1.93;;;35.90;10.20;;;;;;10390327;28;20318;-84
2021/06/17 15:59:50;;;;;;;2.20;2.10;;;36.10;10.20;;;;;;10378408;28;20699;-76
2021/06/17 16:04:54;;;;;;;2.10;2.00;;;36.20;10.20;;;;;;10374297;28;20629;-77
2021/06/17 16:09:57;;;;;;;2.07;1.97;;;36.20;9.10;;;;;;10378951;28;20609;-76
2021/06/17 16:15:00;;;;;;;2.23;2.03;;;36.40;9.80;;;;;;10382039;28;20250;-76
2021/06/17 16:20:06;;;;;;;2.60;2.40;;;36.40;9.80;;;;;;10394380;28;20222;-76
2021/06/17 16:25:11;;;;;;;2.80;2.60;;;36.40;9.90;;;;;;10395682;28;20279;-83
2021/06/17 16:30:15;;;;;;;2.50;2.40;;;36.40;10.40;;;;;;10400530;28;20307;-83
2021/06/17 16:35:20;;;;;;;2.90;2.70;;;36.40;10.30;;;;;;10394530;28;20242;-76
2021/06/17 16:40:24;;;;;;;2.60;2.50;;;36.50;10.80;;;;;;10390678;28;20242;-77
2021/06/17 16:45:27;;;;;;;3.77;2.30;;;36.50;10.20;;;;;;10385800;28;20280;-76
2021/06/17 16:50:32;;;;;;;2.80;2.60;;;36.50;10.50;;;;;;10381673;28;20237;-76
2021/06/17 16:55:35;;;;;;;2.43;2.33;;;36.50;10.60;;;;;;10380444;28;20242;-76
2021/06/17 17:00:40;;;;;;;2.40;2.30;;;36.50;10.90;;;;;;10393111;28;20234;-83
2021/06/17 17:05:44;;;;;;;2.60;2.40;;;36.50;10.40;;;;;;10391506;28;20229;-77
2021/06/17 17:10:48;;;;;;;2.70;2.37;;;36.50;10.60;;;;;;10370236;28;20234;-76
2021/06/17 17:15:51;;;;;;;2.93;2.43;;;36.40;10.80;;;;;;10387901;28;20233;-74
2021/06/17 17:20:56;;;;;;;2.60;2.50;;;36.40;11.00;;;;;;10378298;28;20730;-74
2021/06/17 17:25:59;;;;;;;2.60;2.40;;;36.40;10.80;;;;;;10382465;28;20239;-74
2021/06/17 17:31:03;;;;;;;2.43;2.33;;;36.40;11.70;;;;;;10379073;28;20229;-75
2021/06/17 17:36:08;;;;;;;2.60;2.40;;;36.30;11.30;;;;;;10386425;28;20735;-75
2021/06/17 17:41:11;;;;;;;2.53;2.33;;;36.20;11.00;;;;;;10385995;28;20226;-76
2021/06/17 17:46:14;;;;;;;2.23;2.13;;;36.10;11.00;;;;;;10381380;28;20245;-78
2021/06/17 17:51:19;;;;;;;2.57;2.13;;;35.90;10.90;;;;;;10374437;28;20253;-78
2021/06/17 17:56:24;;;;;;;3.20;2.00;;;35.90;10.80;;;;;;10382903;28;20238;-78
2021/06/17 18:01:29;;;;;;;2.20;2.10;;;35.80;11.00;;;;;;10378580;28;20250;-78
2021/06/17 18:06:34;;;;;;;2.40;2.30;;;35.70;11.10;;;;;;10393343;28;20234;-77
2021/06/17 18:11:37;;;;;;;2.00;1.90;;;35.70;11.40;;;;;;10380783;28;20235;-77
2021/06/17 18:17:06;;;;;;;2.20;2.07;;;35.70;11.80;;;;;;10394616;28;20229;-83
2021/06/17 18:22:12;;;;;;;3.17;2.27;;;35.60;12.40;;;;;;10391691;28;20721;-79
2021/06/17 18:27:17;;;;;;;3.30;2.40;;;35.50;12.50;;;;;;10387119;28;20698;-78
2021/06/17 18:32:21;;;;;;;2.60;2.40;;;35.30;12.40;;;;;;10387847;28;20361;-82
2021/06/17 18:37:27;;;;;;;2.43;2.23;;;35.10;12.50;;;;;;10380093;28;20245;-78
2021/06/17 18:42:31;;;;;;;2.90;2.30;;;34.90;12.60;;;;;;10378964;28;20239;-78
2021/06/17 18:47:34;;;;;;;3.43;2.33;;;34.80;13.10;;;;;;10381735;28;20236;-78
2021/06/17 18:52:38;;;;;;;2.50;2.30;;;34.50;12.90;;;;;;10383758;28;20231;-79
2021/06/17 18:57:42;;;;;;;3.20;2.40;;;34.30;13.00;;;;;;10385172;28;20612;-78
2021/06/17 19:02:45;;;;;;;2.50;2.40;;;34.10;13.20;;;;;;10374877;28;20537;-78
2021/06/17 19:07:50;;;;;;;2.47;2.30;;;33.80;13.50;;;;;;10383311;28;20320;-84
2021/06/17 19:12:54;;;;;;;2.40;2.30;;;33.70;13.70;;;;;;10385020;28;20885;-78
2021/06/17 19:17:57;;;;;;;2.40;2.20;;;33.40;13.60;;;;;;10387418;28;20222;-76
2021/06/17 19:23:02;;;;;;;2.57;2.37;;;33.10;13.90;;;;;;10376983;28;20274;-73
2021/06/17 19:28:06;;;;;;;2.57;2.37;;;33.00;14.30;;;;;;10388009;28;20236;-79
2021/06/17 19:33:09;;;;;;;2.20;2.10;;;32.80;14.20;;;;;;10384025;28;20335;-75
2021/06/17 19:38:17;;;;;;;2.73;2.53;;;32.60;14.50;;;;;;10370753;28;20241;-78
2021/06/17 19:43:20;;;;;;;2.90;2.20;;;32.40;14.70;;;;;;10384560;28;20324;-78
2021/06/17 19:48:24;;;;;;;2.00;1.90;;;32.20;14.80;;;;;;10390736;28;20233;-82
2021/06/17 19:53:32;;;;;;;2.93;2.30;;;32.00;14.80;;;;;;10398168;28;20607;-75
2021/06/17 19:58:41;;;;;;;4.17;2.40;;;31.70;14.90;;;;;;10388867;28;21251;-76
2021/06/17 20:03:44;;;;;;;3.90;2.53;;;31.50;15.20;;;;;;10392369;28;20688;-76
2021/06/17 20:08:49;;;;;;;2.80;2.60;;;31.40;15.40;;;;;;10386369;28;20794;-76
2021/06/17 20:13:53;;;;;;;2.73;2.63;;;31.20;15.80;;;;;;10381583;28;20308;-76
2021/06/17 20:18:56;;;;;;;2.80;2.40;;;31.10;15.90;;;;;;10381505;28;20225;-76
2021/06/17 20:24:02;;;;;;;2.70;2.50;;;30.90;16.00;;;;;;10388221;28;20242;-74
2021/06/17 20:29:06;;;;;;;3.00;2.80;;;30.70;16.50;;;;;;10383500;28;20238;-75
2021/06/17 20:34:11;;;;;;;3.53;2.77;;;30.50;16.40;;;;;;10387793;28;20237;-74
2021/06/17 20:39:16;;;;;;;2.80;2.60;;;30.10;16.80;;;;;;10382305;28;20222;-76
2021/06/17 20:44:19;;;;;;;3.63;2.97;;;29.80;17.40;;;;;;10384390;28;20233;-76
2021/06/17 20:49:22;;;;;;;2.93;2.73;;;29.50;17.60;;;;;;10373908;28;20237;-77
2021/06/17 20:54:30;;;;;;;3.10;2.80;;;29.40;17.70;;;;;;10379354;28;20233;-75
2021/06/17 20:59:33;;;;;;;3.20;2.67;;;29.30;18.20;;;;;;10379092;28;20222;-75
2021/06/17 21:04:36;;;;;;;2.80;2.40;;;29.20;18.10;;;;;;10382716;28;20229;-74
2021/06/17 21:09:41;;;;;;;3.87;2.80;;;29.00;18.30;;;;;;10375042;28;20230;-74
2021/06/17 21:14:45;;;;;;;8.50;3.17;;;28.90;18.90;;;;;;10398663;28;20628;-78
2021/06/17 21:19:48;;;;;;;3.40;3.10;;;28.70;18.60;;;;;;10389625;28;20250;-75
2021/06/17 21:24:52;;;;;;;3.00;2.80;;;28.40;18.90;;;;;;10395000;28;20306;-80
2021/06/17 21:29:56;;;;;;;4.00;3.60;;;28.10;19.70;;;;;;10395252;28;20232;-81
2021/06/17 21:34:59;;;;;;;4.83;3.47;;;27.90;20.00;;;;;;10387931;28;20238;-80
2021/06/17 21:40:05;;;;;;;3.27;3.07;;;27.70;19.90;;;;;;10393802;28;20222;-79
2021/06/17 21:45:10;;;;;;;3.53;3.23;;;27.50;20.60;;;;;;10392644;28;20732;-80
2021/06/17 21:50:13;;;;;;;3.60;3.30;;;27.20;20.30;;;;;;10389498;28;20241;-74
2021/06/17 21:55:19;;;;;;;4.57;3.57;;;27.00;20.50;;;;;;10397976;28;20229;-79
2021/06/17 22:00:25;;;;;;;3.90;3.60;;;26.80;22.00;;;;;;10393887;28;20324;-80
2021/06/17 22:05:29;;;;;;;4.60;3.67;;;26.60;21.40;;;;;;10397980;28;20234;-80
2021/06/17 22:10:34;;;;;;;4.20;3.77;;;26.50;21.30;;;;;;10394161;28;20612;-80
2021/06/17 22:15:37;;;;;;;3.87;3.63;;;26.30;22.00;;;;;;10395520;28;20741;-79
2021/06/17 22:20:40;;;;;;;4.27;3.97;;;26.10;22.00;;;;;;10397412;28;20233;-79
2021/06/17 22:25:45;;;;;;;7.47;4.13;;;25.90;22.10;;;;;;10399454;28;20236;-79
2021/06/17 22:30:48;;;;;;;4.07;3.77;;;25.70;23.10;;;;;;10382015;28;20292;-79
2021/06/17 22:35:52;;;;;;;6.23;3.67;;;25.60;22.80;;;;;;10386173;28;20621;-80
2021/06/17 22:40:56;;;;;;;6.67;4.00;;;25.50;22.90;;;;;;10393957;28;20230;-79
2021/06/17 22:46:02;;;;;;;3.60;3.30;;;25.40;23.60;;;;;;10385261;28;20241;-80
2021/06/17 22:51:06;;;;;;;3.83;3.53;;;25.30;23.00;;;;;;10392621;28;20250;-79
2021/06/17 22:56:12;;;;;;;4.20;3.70;;;25.20;23.40;;;;;;10370700;28;20240;-79
2021/06/17 23:01:16;;;;;;;4.43;3.97;;;25.30;24.10;;;;;;10402703;28;20710;-79
2021/06/17 23:06:20;;;;;;;3.83;3.53;;;25.20;23.70;;;;;;10391275;28;20233;-79
2021/06/17 23:11:24;;;;;;;5.13;3.20;;;25.20;23.90;;;;;;10387048;28;20236;-79
2021/06/17 23:16:28;;;;;;;3.53;3.23;;;25.20;24.10;;;;;;10389832;28;20229;-79
2021/06/17 23:21:32;;;;;;;4.03;3.63;;;25.20;23.70;;;;;;10393959;28;20242;-79
2021/06/17 23:26:37;;;;;;;5.10;3.80;;;25.20;24.20;;;;;;10390894;28;20232;-79
2021/06/17 23:31:40;;;;;;;3.63;3.43;;;25.10;24.40;;;;;;10396824;28;20245;-79
2021/06/17 23:36:44;;;;;;;3.20;2.90;;;25.10;24.20;;;;;;10393767;28;20300;-79
2021/06/17 23:41:48;;;;;;;4.00;3.70;;;25.00;24.30;;;;;;10391505;28;20238;-79
2021/06/17 23:46:52;;;;;;;4.20;3.90;;;25.00;24.90;;;;;;10391560;28;20226;-79
2021/06/17 23:51:55;;;;;;;4.07;3.77;;;25.10;24.70;;;;;;10386898;28;20714;-79
2021/06/17 23:56:59;;;;;;;4.20;3.90;;;25.00;24.50;;;;;;10389418;28;20237;-79
